createdAt,value
2018-05-11T00:00:58.224Z,6.97
2018-05-11T00:03:27.104Z,9.07
2018-05-11T00:05:55.947Z,7.47
2018-05-11T00:08:24.051Z,7.90
2018-05-11T00:10:52.172Z,8.70
2018-05-11T00:13:20.996Z,8.00
2018-05-11T00:15:49.119Z,8.00
2018-05-11T00:18:17.226Z,7.40
2018-05-11T00:20:45.327Z,7.73
2018-05-11T00:23:13.463Z,6.20
2018-05-11T00:25:41.528Z,7.20
2018-05-11T00:28:09.647Z,9.60
2018-05-11T00:30:37.741Z,7.03
2018-05-11T00:33:05.824Z,8.00
2018-05-11T00:35:33.910Z,7.57
2018-05-11T00:38:01.993Z,7.43
2018-05-11T00:40:30.090Z,9.03
2018-05-11T00:42:58.185Z,7.43
2018-05-11T00:45:26.290Z,9.83
2018-05-11T00:47:55.187Z,8.57
2018-05-11T00:50:24.060Z,9.20
2018-05-11T00:52:52.193Z,9.17
2018-05-11T00:55:32.197Z,10.60
2018-05-11T00:58:00.305Z,8.37
2018-05-11T01:00:28.382Z,8.80
2018-05-11T01:02:56.721Z,9.20
2018-05-11T01:05:25.575Z,10.47
2018-05-11T01:07:53.741Z,7.93
2018-05-11T01:10:21.832Z,7.83
2018-05-11T01:12:49.990Z,10.00
2018-05-11T01:15:18.064Z,8.53
2018-05-11T01:17:46.910Z,8.83
2018-05-11T01:20:14.995Z,9.17
2018-05-11T01:22:43.085Z,8.63
2018-05-11T01:25:11.178Z,8.90
2018-05-11T01:27:39.265Z,10.63
2018-05-11T01:30:07.357Z,9.57
2018-05-11T01:32:35.445Z,8.43
2018-05-11T01:35:03.524Z,8.70
2018-05-11T01:37:31.627Z,8.10
2018-05-11T01:40:00.514Z,7.57
2018-05-11T01:42:28.613Z,7.93
2018-05-11T01:44:56.744Z,7.57
2018-05-11T01:47:24.857Z,7.60
2018-05-11T01:49:53.014Z,8.43
2018-05-11T01:52:21.136Z,7.90
2018-05-11T01:54:49.284Z,13.90
2018-05-11T01:57:18.153Z,9.93
2018-05-11T01:59:47.004Z,6.90
2018-05-11T02:02:15.101Z,10.60
2018-05-11T02:04:43.206Z,7.63
2018-05-11T02:07:11.295Z,8.63
2018-05-11T02:09:40.931Z,9.43
2018-05-11T02:12:09.811Z,9.37
2018-05-11T02:14:37.896Z,8.60
2018-05-11T02:17:06.000Z,8.43
2018-05-11T02:19:34.113Z,8.20
2018-05-11T02:22:02.213Z,8.07
2018-05-11T02:24:30.317Z,8.40
2018-05-11T02:26:58.400Z,10.10
2018-05-11T02:29:26.551Z,8.77
2018-05-11T02:31:55.411Z,10.67
2018-05-11T02:34:23.579Z,7.80
2018-05-11T02:36:51.680Z,11.43
2018-05-11T02:39:19.814Z,10.40
2018-05-11T02:41:47.931Z,7.97
2018-05-11T02:44:16.021Z,8.90
2018-05-11T02:46:44.128Z,8.97
2018-05-11T02:49:12.228Z,9.93
2018-05-11T02:51:41.100Z,11.20
2018-05-11T02:54:09.182Z,7.90
2018-05-11T02:56:37.285Z,9.27
2018-05-11T02:59:05.388Z,8.60
2018-05-11T03:01:34.260Z,8.33
2018-05-11T03:04:02.319Z,8.17
2018-05-11T03:06:30.420Z,10.10
2018-05-11T03:08:58.525Z,8.63
2018-05-11T03:11:26.672Z,9.10
2018-05-11T03:13:54.762Z,8.70
2018-05-11T03:16:22.859Z,9.40
2018-05-11T03:18:50.968Z,7.60
2018-05-11T03:21:19.818Z,8.03
2018-05-11T03:23:47.917Z,9.63
2018-05-11T03:26:16.016Z,8.67
2018-05-11T03:28:44.117Z,10.20
2018-05-11T03:31:12.270Z,10.97
2018-05-11T03:33:40.367Z,9.43
2018-05-11T03:36:08.511Z,11.57
2018-05-11T03:38:36.610Z,9.43
2018-05-11T03:41:04.747Z,8.60
2018-05-11T03:43:34.354Z,10.70
2018-05-11T03:46:02.501Z,9.90
2018-05-11T03:48:30.620Z,9.30
2018-05-11T03:50:58.855Z,9.27
2018-05-11T03:53:27.655Z,10.47
2018-05-11T03:55:56.520Z,11.10
2018-05-11T03:58:25.376Z,11.47
2018-05-11T04:00:53.513Z,12.67
2018-05-11T04:03:33.454Z,12.53
2018-05-11T04:06:05.075Z,12.37
2018-05-11T04:08:40.788Z,11.43
2018-05-11T04:11:08.900Z,11.10
2018-05-11T04:13:36.974Z,11.77
2018-05-11T04:16:05.073Z,12.63
2018-05-11T04:18:33.167Z,10.30
2018-05-11T04:21:01.247Z,12.93
2018-05-11T04:23:29.328Z,13.80
2018-05-11T04:25:57.431Z,11.67
2018-05-11T04:28:26.298Z,12.10
2018-05-11T04:30:54.395Z,10.73
2018-05-11T04:33:22.500Z,12.10
2018-05-11T04:35:50.580Z,10.10
2018-05-11T04:38:19.512Z,9.47
2018-05-11T04:40:47.597Z,9.93
2018-05-11T04:43:15.688Z,10.87
2018-05-11T04:45:43.867Z,11.10
2018-05-11T04:48:11.957Z,8.77
2018-05-11T04:50:40.037Z,8.60
2018-05-11T04:53:08.143Z,8.57
2018-05-11T04:55:36.235Z,7.93
2018-05-11T04:58:04.337Z,9.40
2018-05-11T05:00:32.441Z,8.30
2018-05-11T05:03:00.560Z,8.40
2018-05-11T05:05:28.685Z,10.80
2018-05-11T05:07:56.804Z,10.37
2018-05-11T05:10:25.669Z,7.70
2018-05-11T05:12:53.865Z,10.00
2018-05-11T05:15:21.971Z,9.40
2018-05-11T05:17:50.079Z,7.17
2018-05-11T05:20:18.182Z,7.43
2018-05-11T05:22:46.304Z,6.33
2018-05-11T05:25:14.406Z,7.53
2018-05-11T05:27:42.503Z,8.00
2018-05-11T05:30:11.395Z,5.90
2018-05-11T05:32:41.032Z,4.90
2018-05-11T05:35:09.933Z,5.30
2018-05-11T05:37:38.807Z,4.67
2018-05-11T05:40:06.893Z,5.07
2018-05-11T05:42:34.988Z,6.00
2018-05-11T05:45:03.085Z,5.03
2018-05-11T05:47:31.960Z,4.90
2018-05-11T05:50:00.061Z,5.03
2018-05-11T05:52:28.160Z,4.40
2018-05-11T05:54:57.024Z,5.90
2018-05-11T05:57:25.148Z,4.37
2018-05-11T05:59:54.109Z,5.00
2018-05-11T06:02:22.145Z,4.87
2018-05-11T06:04:51.002Z,5.17
2018-05-11T06:07:19.105Z,4.07
2018-05-11T06:09:47.218Z,6.07
2018-05-11T06:12:16.077Z,4.83
2018-05-11T06:14:44.159Z,4.67
2018-05-11T06:17:12.224Z,4.37
2018-05-11T06:19:40.352Z,7.00
2018-05-11T06:22:08.500Z,4.10
2018-05-11T06:24:37.306Z,4.83
2018-05-11T06:27:05.405Z,4.28
2018-05-11T06:29:33.508Z,3.87
2018-05-11T06:32:02.384Z,4.53
2018-05-11T06:34:30.507Z,3.95
2018-05-11T06:36:58.588Z,4.68
2018-05-11T06:39:26.705Z,5.12
2018-05-11T06:41:54.788Z,6.72
2018-05-11T06:44:22.906Z,4.30
2018-05-11T06:46:51.047Z,5.22
2018-05-11T06:49:19.931Z,6.70
2018-05-11T06:51:48.006Z,4.97
2018-05-11T06:54:16.134Z,5.57
2018-05-11T06:56:44.235Z,6.22
2018-05-11T06:59:12.311Z,5.00
2018-05-11T07:01:40.488Z,6.32
2018-05-11T07:04:08.498Z,5.90
2018-05-11T07:06:36.600Z,5.55
2018-05-11T07:09:04.689Z,6.80
2018-05-11T07:11:32.769Z,6.77
2018-05-11T07:14:00.893Z,6.83
2018-05-11T07:16:29.813Z,7.53
2018-05-11T07:18:57.891Z,8.43
2018-05-11T07:21:26.759Z,7.40
2018-05-11T07:23:54.861Z,7.67
2018-05-11T07:26:22.924Z,8.20
2018-05-11T07:28:51.008Z,6.97
2018-05-11T07:31:19.100Z,5.75
2018-05-11T07:33:47.193Z,7.60
2018-05-11T07:36:15.261Z,9.77
2018-05-11T07:38:43.378Z,9.25
2018-05-11T07:41:12.263Z,9.50
2018-05-11T07:43:40.364Z,7.95
2018-05-11T07:46:09.242Z,9.53
2018-05-11T07:48:38.829Z,8.33
2018-05-11T07:51:06.929Z,10.90
2018-05-11T07:53:35.031Z,12.20
2018-05-11T07:56:03.161Z,12.87
2018-05-11T07:58:31.278Z,12.93
2018-05-11T08:00:59.481Z,15.27
2018-05-11T08:03:28.317Z,16.80
2018-05-11T08:05:57.183Z,16.57
2018-05-11T08:08:25.334Z,19.00
2018-05-11T08:10:53.437Z,17.50
2018-05-11T08:13:21.535Z,17.37
2018-05-11T08:15:49.644Z,15.37
2018-05-11T08:18:17.741Z,16.83
2018-05-11T08:20:46.650Z,18.80
2018-05-11T08:23:14.730Z,17.97
2018-05-11T08:25:43.613Z,19.17
2018-05-11T08:28:11.734Z,14.53
2018-05-11T08:30:39.849Z,15.60
2018-05-11T08:33:07.938Z,15.50
2018-05-11T08:35:36.052Z,14.83
2018-05-11T08:38:04.156Z,15.10
2018-05-11T08:40:33.047Z,13.40
2018-05-11T08:43:01.157Z,14.20
2018-05-11T08:45:29.307Z,18.07
2018-05-11T08:47:57.434Z,17.83
2018-05-11T08:50:25.524Z,18.77
2018-05-11T08:52:53.668Z,19.37
2018-05-11T08:55:21.780Z,19.20
2018-05-11T08:57:50.680Z,20.63
2018-05-11T09:00:19.576Z,21.80
2018-05-11T09:02:48.467Z,18.80
2018-05-11T09:05:16.544Z,15.37
2018-05-11T09:07:44.630Z,14.63
2018-05-11T09:10:12.752Z,14.10
2018-05-11T09:12:41.624Z,15.00
2018-05-11T09:15:09.755Z,14.03
2018-05-11T09:17:37.870Z,14.57
2018-05-11T09:20:05.950Z,12.60
2018-05-11T09:22:34.094Z,12.97
2018-05-11T09:25:02.204Z,12.60
2018-05-11T09:27:30.376Z,14.03
2018-05-11T09:29:58.499Z,13.43
2018-05-11T09:32:26.629Z,13.07
2018-05-11T09:34:55.484Z,14.47
2018-05-11T09:37:23.615Z,12.30
2018-05-11T09:39:52.642Z,12.60
2018-05-11T09:42:20.665Z,17.87
2018-05-11T09:44:48.773Z,12.07
2018-05-11T09:47:16.909Z,11.80
2018-05-11T09:49:45.006Z,13.57
2018-05-11T09:52:13.162Z,12.43
2018-05-11T09:54:41.248Z,11.70
2018-05-11T09:57:09.412Z,13.87
2018-05-11T09:59:37.482Z,12.00
2018-05-11T10:02:06.396Z,13.60
2018-05-11T10:04:35.268Z,13.10
2018-05-11T10:07:03.401Z,11.98
2018-05-11T10:09:31.536Z,13.52
2018-05-11T10:11:59.683Z,13.00
2018-05-11T10:14:28.555Z,16.85
2018-05-11T10:16:57.470Z,12.82
2018-05-11T10:19:26.349Z,13.55
2018-05-11T10:21:54.445Z,14.02
2018-05-11T10:24:22.552Z,15.40
2018-05-11T10:26:50.663Z,15.43
2018-05-11T10:29:18.811Z,12.63
2018-05-11T10:31:47.660Z,15.43
2018-05-11T10:34:15.777Z,14.23
2018-05-11T10:36:43.872Z,14.63
2018-05-11T10:39:12.792Z,14.43
2018-05-11T10:41:41.653Z,15.27
2018-05-11T10:44:09.810Z,13.43
2018-05-11T10:46:37.886Z,13.50
2018-05-11T10:49:06.035Z,14.67
2018-05-11T10:51:34.479Z,14.57
2018-05-11T10:54:02.543Z,12.37
2018-05-11T10:56:30.626Z,12.87
2018-05-11T10:58:58.724Z,10.40
2018-05-11T11:01:26.806Z,10.65
2018-05-11T11:03:54.943Z,11.23
2018-05-11T11:06:23.053Z,11.95
2018-05-11T11:08:51.895Z,13.32
2018-05-11T11:11:19.983Z,14.15
2018-05-11T11:13:48.071Z,11.65
2018-05-11T11:16:16.199Z,11.20
2018-05-11T11:18:44.288Z,13.23
2018-05-11T11:21:12.387Z,13.45
2018-05-11T11:23:40.498Z,13.50
2018-05-11T11:26:08.596Z,14.93
2018-05-11T11:28:36.693Z,12.67
2018-05-11T11:31:04.806Z,12.83
2018-05-11T11:33:33.676Z,11.03
2018-05-11T11:36:01.785Z,11.47
2018-05-11T11:38:29.917Z,12.40
2018-05-11T11:40:58.009Z,11.97
2018-05-11T11:43:26.111Z,12.67
2018-05-11T11:45:54.220Z,12.67
2018-05-11T11:48:22.384Z,11.40
2018-05-11T11:50:50.497Z,13.77
2018-05-11T11:53:18.585Z,16.58
2018-05-11T11:55:46.695Z,13.13
2018-05-11T11:58:15.556Z,12.07
2018-05-11T12:00:43.668Z,12.63
2018-05-11T12:03:12.557Z,11.27
2018-05-11T12:05:40.671Z,11.73
2018-05-11T12:08:09.548Z,10.97
2018-05-11T12:10:37.644Z,10.60
2018-05-11T12:13:06.508Z,11.63
2018-05-11T12:15:34.619Z,13.20
2018-05-11T12:18:02.736Z,12.93
2018-05-11T12:20:30.911Z,12.95
2018-05-11T12:22:59.791Z,12.48
2018-05-11T12:25:27.895Z,12.18
2018-05-11T12:27:56.048Z,13.98
2018-05-11T12:30:24.140Z,10.65
2018-05-11T12:32:52.313Z,12.63
2018-05-11T12:35:20.411Z,12.65
2018-05-11T12:37:48.533Z,11.48
2018-05-11T12:40:16.907Z,12.40
2018-05-11T12:42:45.805Z,10.27
2018-05-11T12:45:14.698Z,11.25
2018-05-11T12:47:42.860Z,11.75
2018-05-11T12:50:10.939Z,11.02
2018-05-11T12:52:39.056Z,11.85
2018-05-11T12:55:07.152Z,11.77
2018-05-11T12:57:35.292Z,12.30
2018-05-11T13:00:03.379Z,11.60
2018-05-11T13:02:31.490Z,12.27
2018-05-11T13:04:59.601Z,10.35
2018-05-11T13:07:28.476Z,12.73
2018-05-11T13:09:56.593Z,11.18
2018-05-11T13:12:25.523Z,11.57
2018-05-11T13:14:53.598Z,11.77
2018-05-11T13:17:21.691Z,11.63
2018-05-11T13:19:49.773Z,10.63
2018-05-11T13:22:17.874Z,8.27
2018-05-11T13:24:45.944Z,11.77
2018-05-11T13:27:14.088Z,11.27
2018-05-11T13:29:42.189Z,11.25
2018-05-11T13:32:10.306Z,8.60
2018-05-11T13:34:38.404Z,11.98
2018-05-11T13:37:06.518Z,11.12
2018-05-11T13:39:34.621Z,12.52
2018-05-11T13:42:03.493Z,12.20
2018-05-11T13:44:31.568Z,10.82
2018-05-11T13:46:59.667Z,11.68
2018-05-11T13:49:27.839Z,13.05
2018-05-11T13:51:56.029Z,11.18
2018-05-11T13:54:24.146Z,10.93
2018-05-11T13:56:52.233Z,11.15
2018-05-11T13:59:20.330Z,11.12
2018-05-11T14:01:49.203Z,10.68
2018-05-11T14:04:17.421Z,10.65
2018-05-11T14:06:45.555Z,12.55
2018-05-11T14:09:13.900Z,11.33
2018-05-11T14:11:42.858Z,10.03
2018-05-11T14:14:11.049Z,11.67
2018-05-11T14:16:39.218Z,12.50
2018-05-11T14:19:07.426Z,12.67
2018-05-11T14:21:36.327Z,10.07
2018-05-11T14:24:04.436Z,11.97
2018-05-11T14:26:32.518Z,12.57
2018-05-11T14:29:00.629Z,9.32
2018-05-11T14:31:29.492Z,11.18
2018-05-11T14:33:58.368Z,12.55
2018-05-11T14:36:26.476Z,11.12
2018-05-11T14:38:54.648Z,11.87
2018-05-11T14:41:22.685Z,12.27
2018-05-11T14:43:51.561Z,11.73
2018-05-11T14:46:19.682Z,10.43
2018-05-11T14:48:47.765Z,9.87
2018-05-11T14:51:15.865Z,10.20
2018-05-11T14:53:43.972Z,12.43
2018-05-11T14:56:12.099Z,10.37
2018-05-11T14:58:41.045Z,9.67
2018-05-11T15:01:09.057Z,10.20
2018-05-11T15:03:37.173Z,12.07
2018-05-11T15:06:05.247Z,11.43
2018-05-11T15:08:33.378Z,10.63
2018-05-11T15:11:01.498Z,11.33
2018-05-11T15:13:29.595Z,9.83
2018-05-11T15:15:57.720Z,10.87
2018-05-11T15:18:25.805Z,11.50
2018-05-11T15:20:54.704Z,11.50
2018-05-11T15:23:22.768Z,11.00
2018-05-11T15:25:51.990Z,10.80
2018-05-11T15:28:20.975Z,10.93
2018-05-11T15:30:49.114Z,11.63
2018-05-11T15:33:17.254Z,10.00
2018-05-11T15:35:46.130Z,9.90
2018-05-11T15:38:14.301Z,11.03
2018-05-11T15:40:42.388Z,12.20
2018-05-11T15:43:10.493Z,12.03
2018-05-11T15:45:38.686Z,11.60
2018-05-11T15:48:07.211Z,12.13
2018-05-11T15:50:36.080Z,11.87
2018-05-11T15:53:04.183Z,12.23
2018-05-11T15:55:32.318Z,12.17
2018-05-11T15:58:00.445Z,10.87
2018-05-11T16:00:28.584Z,11.27
2018-05-11T16:02:56.685Z,11.33
2018-05-11T16:05:24.836Z,12.40
2018-05-11T16:07:52.959Z,10.17
2018-05-11T16:10:21.053Z,12.50
2018-05-11T16:12:49.258Z,10.80
2018-05-11T16:15:17.351Z,13.23
2018-05-11T16:17:45.425Z,10.50
2018-05-11T16:20:13.511Z,13.00
2018-05-11T16:22:41.597Z,14.77
2018-05-11T16:25:10.460Z,11.90
2018-05-11T16:27:38.575Z,11.50
2018-05-11T16:30:06.739Z,12.20
2018-05-11T16:32:34.876Z,12.97
2018-05-11T16:35:03.745Z,12.17
2018-05-11T16:37:31.848Z,12.03
2018-05-11T16:39:59.955Z,12.43
2018-05-11T16:42:28.909Z,13.40
2018-05-11T16:44:57.023Z,12.70
2018-05-11T16:47:25.154Z,11.63
2018-05-11T16:49:53.267Z,13.70
2018-05-11T16:52:21.356Z,12.30
2018-05-11T16:54:49.457Z,11.97
2018-05-11T16:57:17.607Z,12.83
2018-05-11T16:59:45.693Z,12.57
2018-05-11T17:02:13.841Z,12.90
2018-05-11T17:04:41.944Z,12.77
2018-05-11T17:07:10.031Z,11.50
2018-05-11T17:09:38.146Z,12.03
2018-05-11T17:12:06.254Z,11.90
2018-05-11T17:14:34.332Z,11.27
2018-05-11T17:17:02.854Z,11.87
2018-05-11T17:19:30.947Z,10.80
2018-05-11T17:21:59.826Z,10.83
2018-05-11T17:24:27.954Z,13.80
2018-05-11T17:26:56.042Z,11.40
2018-05-11T17:29:24.204Z,13.37
2018-05-11T17:31:53.092Z,13.10
2018-05-11T17:34:21.192Z,14.03
2018-05-11T17:36:50.100Z,13.37
2018-05-11T17:39:18.187Z,12.13
2018-05-11T17:41:46.374Z,12.73
2018-05-11T17:44:15.323Z,11.63
2018-05-11T17:46:43.424Z,12.93
2018-05-11T17:49:11.573Z,13.93
2018-05-11T17:51:39.745Z,13.20
2018-05-11T17:54:07.845Z,13.93
2018-05-11T17:56:35.941Z,15.03
2018-05-11T17:59:04.073Z,13.50
2018-05-11T18:01:32.969Z,12.53
2018-05-11T18:04:01.114Z,16.60
2018-05-11T18:06:29.209Z,13.40
2018-05-11T18:08:57.349Z,13.87
2018-05-11T18:11:26.229Z,13.93
2018-05-11T18:13:54.331Z,12.40
2018-05-11T18:16:23.204Z,14.03
2018-05-11T18:18:51.332Z,13.80
2018-05-11T18:21:19.445Z,14.60
2018-05-11T18:23:47.568Z,13.77
2018-05-11T18:26:15.681Z,13.50
2018-05-11T18:28:43.792Z,12.60
2018-05-11T18:31:11.884Z,12.67
2018-05-11T18:33:40.044Z,12.30
2018-05-11T18:36:08.145Z,13.20
2018-05-11T18:38:36.255Z,13.70
2018-05-11T18:41:04.386Z,12.40
2018-05-11T18:43:33.243Z,11.80
2018-05-11T18:46:01.342Z,13.63
2018-05-11T18:48:29.511Z,14.17
2018-05-11T18:50:57.619Z,13.63
2018-05-11T18:53:26.162Z,11.73
2018-05-11T18:55:53.853Z,13.73
2018-05-11T18:58:21.950Z,15.77
2018-05-11T19:00:50.088Z,13.33
2018-05-11T19:03:18.971Z,13.60
2018-05-11T19:05:47.860Z,14.40
2018-05-11T19:08:15.969Z,14.57
2018-05-11T19:10:44.872Z,14.70
2018-05-11T19:13:14.694Z,15.00
2018-05-11T19:15:42.810Z,17.50
2018-05-11T19:18:11.662Z,16.67
2018-05-11T19:20:39.830Z,15.40
2018-05-11T19:23:07.959Z,16.57
2018-05-11T19:25:36.081Z,16.63
2018-05-11T19:28:04.189Z,16.80
2018-05-11T19:30:32.327Z,15.00
2018-05-11T19:33:01.247Z,16.93
2018-05-11T19:35:29.400Z,15.60
2018-05-11T19:37:57.510Z,14.87
2018-05-11T19:40:25.678Z,13.80
2018-05-11T19:42:53.825Z,14.83
2018-05-11T19:45:21.977Z,13.40
2018-05-11T19:47:50.075Z,14.67
2018-05-11T19:50:18.175Z,15.90
2018-05-11T19:52:46.295Z,14.70
2018-05-11T19:55:15.251Z,14.63
2018-05-11T19:57:43.371Z,15.50
2018-05-11T20:00:11.516Z,15.10
2018-05-11T20:02:40.355Z,16.30
2018-05-11T20:05:08.466Z,15.10
2018-05-11T20:07:37.347Z,15.07
2018-05-11T20:10:05.462Z,15.40
2018-05-11T20:12:34.344Z,16.80
2018-05-11T20:15:02.479Z,15.40
2018-05-11T20:17:30.552Z,16.13
2018-05-11T20:19:58.716Z,16.03
2018-05-11T20:22:27.555Z,17.97
2018-05-11T20:24:55.764Z,17.47
2018-05-11T20:27:23.789Z,18.00
2018-05-11T20:29:52.655Z,18.30
2018-05-11T20:32:20.771Z,20.37
2018-05-11T20:34:49.628Z,24.43
2018-05-11T20:37:17.734Z,23.23
2018-05-11T20:39:45.862Z,19.17
2018-05-11T20:42:14.770Z,24.13
2018-05-11T20:44:42.885Z,18.27
2018-05-11T20:47:10.967Z,21.17
2018-05-11T20:49:39.138Z,20.70
2018-05-11T20:52:07.283Z,21.07
2018-05-11T20:54:35.403Z,21.43
2018-05-11T20:57:04.257Z,21.70
2018-05-11T20:59:32.371Z,21.00
2018-05-11T21:02:00.473Z,23.90
2018-05-11T21:04:29.330Z,21.03
2018-05-11T21:06:57.444Z,23.17
2018-05-11T21:09:26.330Z,22.73
2018-05-11T21:11:54.412Z,23.30
2018-05-11T21:14:22.518Z,25.10
2018-05-11T21:16:51.392Z,25.50
2018-05-11T21:19:19.494Z,26.90
2018-05-11T21:21:47.643Z,24.27
2018-05-11T21:24:15.756Z,25.23
2018-05-11T21:26:43.850Z,25.53
2018-05-11T21:29:11.952Z,24.87
2018-05-11T21:31:40.084Z,25.57
2018-05-11T21:34:08.178Z,28.27
2018-05-11T21:36:36.279Z,24.33
2018-05-11T21:39:04.398Z,22.80
2018-05-11T21:41:33.259Z,25.00
2018-05-11T21:44:01.352Z,24.10
2018-05-11T21:46:29.467Z,25.00
2018-05-11T21:48:58.345Z,23.67
2018-05-11T21:51:26.505Z,25.23
2018-05-11T21:53:54.613Z,23.70
2018-05-11T21:56:22.767Z,25.77
2018-05-11T21:58:50.847Z,25.63
2018-05-11T22:01:18.958Z,27.70
2018-05-11T22:03:47.084Z,26.33
2018-05-11T22:06:15.243Z,24.60
2018-05-11T22:08:43.356Z,26.40
2018-05-11T22:11:12.234Z,28.23
2018-05-11T22:13:40.389Z,27.73
2018-05-11T22:16:08.504Z,28.80
2018-05-11T22:18:36.628Z,27.77
2018-05-11T22:21:04.761Z,28.30
2018-05-11T22:23:32.832Z,27.13
2018-05-11T22:26:00.956Z,27.10
2018-05-11T22:28:29.828Z,29.47
2018-05-11T22:30:57.969Z,30.93
2018-05-11T22:33:26.084Z,30.17
2018-05-11T22:35:54.180Z,30.17
2018-05-11T22:38:22.297Z,27.87
2018-05-11T22:40:50.378Z,33.83
2018-05-11T22:43:18.479Z,27.73
2018-05-11T22:45:47.371Z,30.10
2018-05-11T22:48:15.480Z,29.10
2018-05-11T22:50:43.585Z,30.17
2018-05-11T22:53:11.691Z,28.50
2018-05-11T22:55:39.787Z,30.63
2018-05-11T22:58:07.904Z,27.73
2018-05-11T23:00:40.327Z,33.67
2018-05-11T23:03:08.436Z,30.80
2018-05-11T23:05:36.529Z,33.57
2018-05-11T23:08:04.688Z,44.40
2018-05-11T23:10:32.800Z,31.57
2018-05-11T23:13:00.915Z,27.97
2018-05-11T23:15:29.772Z,26.37
2018-05-11T23:17:57.870Z,27.03
2018-05-11T23:20:25.968Z,25.93
2018-05-11T23:22:54.070Z,26.60
2018-05-11T23:25:22.953Z,29.57
2018-05-11T23:27:51.084Z,24.57
2018-05-11T23:30:19.186Z,26.43
2018-05-11T23:32:47.295Z,26.23
2018-05-11T23:35:15.424Z,23.23
2018-05-11T23:37:44.297Z,28.93
2018-05-11T23:40:12.399Z,26.80
2018-05-11T23:42:40.497Z,24.00
2018-05-11T23:45:09.384Z,27.33
2018-05-11T23:47:37.499Z,24.13
2018-05-11T23:50:05.593Z,24.90
2018-05-11T23:52:33.707Z,26.53
2018-05-11T23:55:01.858Z,26.00
2018-05-11T23:57:29.952Z,29.10
2018-05-11T23:59:58.080Z,28.23
